sensor_id;sensor_type;location;lat;lon;timestamp;P1;durP1;ratioP1;P2;durP2;ratioP2
19280;SDS011;9774;52.034;5.342;2022-08-19T00:01:25;1.77;;;1.52;;
19280;SDS011;9774;52.034;5.342;2022-08-19T00:03:54;1.80;;;1.70;;
19280;SDS011;9774;52.034;5.342;2022-08-19T00:06:22;1.80;;;1.70;;
19280;SDS011;9774;52.034;5.342;2022-08-19T00:08:49;1.90;;;1.60;;
19280;SDS011;9774;52.034;5.342;2022-08-19T00:11:17;2.30;;;1.60;;
19280;SDS011;9774;52.034;5.342;2022-08-19T00:13:45;2.38;;;2.17;;
19280;SDS011;9774;52.034;5.342;2022-08-19T00:16:16;2.10;;;1.95;;
19280;SDS011;9774;52.034;5.342;2022-08-19T00:18:44;1.73;;;1.63;;
19280;SDS011;9774;52.034;5.342;2022-08-19T00:21:11;2.30;;;1.50;;
19280;SDS011;9774;52.034;5.342;2022-08-19T00:23:39;1.70;;;1.60;;
19280;SDS011;9774;52.034;5.342;2022-08-19T00:26:08;2.17;;;1.75;;
19280;SDS011;9774;52.034;5.342;2022-08-19T00:28:36;3.78;;;1.80;;
19280;SDS011;9774;52.034;5.342;2022-08-19T00:31:04;4.30;;;1.58;;
19280;SDS011;9774;52.034;5.342;2022-08-19T00:33:34;3.65;;;1.98;;
19280;SDS011;9774;52.034;5.342;2022-08-19T00:36:03;3.88;;;1.65;;
19280;SDS011;9774;52.034;5.342;2022-08-19T00:38:33;1.70;;;1.60;;
19280;SDS011;9774;52.034;5.342;2022-08-19T00:41:01;1.55;;;1.45;;
19280;SDS011;9774;52.034;5.342;2022-08-19T00:43:30;1.98;;;1.65;;
19280;SDS011;9774;52.034;5.342;2022-08-19T00:45:57;2.58;;;2.33;;
19280;SDS011;9774;52.034;5.342;2022-08-19T00:48:26;2.88;;;1.90;;
19280;SDS011;9774;52.034;5.342;2022-08-19T00:50:55;1.85;;;1.75;;
19280;SDS011;9774;52.034;5.342;2022-08-19T00:53:24;1.70;;;1.60;;
19280;SDS011;9774;52.034;5.342;2022-08-19T00:55:54;1.88;;;1.67;;
19280;SDS011;9774;52.034;5.342;2022-08-19T00:58:24;2.05;;;1.75;;
19280;SDS011;9774;52.034;5.342;2022-08-19T01:00:54;2.53;;;1.92;;
19280;SDS011;9774;52.034;5.342;2022-08-19T01:03:22;1.35;;;1.25;;
19280;SDS011;9774;52.034;5.342;2022-08-19T01:05:49;1.73;;;1.30;;
19280;SDS011;9774;52.034;5.342;2022-08-19T01:08:19;1.50;;;1.33;;
19280;SDS011;9774;52.034;5.342;2022-08-19T01:10:48;2.78;;;1.70;;
19280;SDS011;9774;52.034;5.342;2022-08-19T01:13:19;2.17;;;1.90;;
19280;SDS011;9774;52.034;5.342;2022-08-19T01:15:49;1.45;;;1.35;;
19280;SDS011;9774;52.034;5.342;2022-08-19T01:18:19;1.67;;;1.58;;
19280;SDS011;9774;52.034;5.342;2022-08-19T01:20:47;1.70;;;1.60;;
19280;SDS011;9774;52.034;5.342;2022-08-19T01:23:16;2.45;;;1.50;;
19280;SDS011;9774;52.034;5.342;2022-08-19T01:25:44;3.22;;;1.75;;
19280;SDS011;9774;52.034;5.342;2022-08-19T01:28:15;1.50;;;1.40;;
19280;SDS011;9774;52.034;5.342;2022-08-19T01:30:44;2.42;;;1.55;;
19280;SDS011;9774;52.034;5.342;2022-08-19T01:33:12;2.00;;;1.80;;
19280;SDS011;9774;52.034;5.342;2022-08-19T01:35:40;2.00;;;1.80;;
19280;SDS011;9774;52.034;5.342;2022-08-19T01:38:09;2.10;;;1.42;;
19280;SDS011;9774;52.034;5.342;2022-08-19T01:40:50;2.30;;;1.50;;
19280;SDS011;9774;52.034;5.342;2022-08-19T01:43:17;2.05;;;1.90;;
19280;SDS011;9774;52.034;5.342;2022-08-19T01:45:46;3.60;;;2.45;;
19280;SDS011;9774;52.034;5.342;2022-08-19T01:48:13;3.30;;;1.63;;
19280;SDS011;9774;52.034;5.342;2022-08-19T01:50:40;1.83;;;1.73;;
19280;SDS011;9774;52.034;5.342;2022-08-19T01:53:09;1.63;;;1.50;;
19280;SDS011;9774;52.034;5.342;2022-08-19T01:55:39;2.08;;;1.80;;
19280;SDS011;9774;52.034;5.342;2022-08-19T01:58:09;2.05;;;1.92;;
19280;SDS011;9774;52.034;5.342;2022-08-19T02:00:40;3.47;;;1.52;;
19280;SDS011;9774;52.034;5.342;2022-08-19T02:03:08;1.70;;;1.60;;
19280;SDS011;9774;52.034;5.342;2022-08-19T02:05:36;1.75;;;1.55;;
19280;SDS011;9774;52.034;5.342;2022-08-19T02:08:04;1.83;;;1.65;;
19280;SDS011;9774;52.034;5.342;2022-08-19T02:10:32;1.70;;;1.60;;
19280;SDS011;9774;52.034;5.342;2022-08-19T02:13:00;1.70;;;1.50;;
19280;SDS011;9774;52.034;5.342;2022-08-19T02:15:28;1.65;;;1.50;;
19280;SDS011;9774;52.034;5.342;2022-08-19T02:17:57;1.77;;;1.40;;
19280;SDS011;9774;52.034;5.342;2022-08-19T02:20:24;1.80;;;1.45;;
19280;SDS011;9774;52.034;5.342;2022-08-19T02:22:51;2.20;;;1.63;;
19280;SDS011;9774;52.034;5.342;2022-08-19T02:25:19;1.52;;;1.42;;
19280;SDS011;9774;52.034;5.342;2022-08-19T02:27:46;1.98;;;1.73;;
19280;SDS011;9774;52.034;5.342;2022-08-19T02:30:14;2.13;;;1.85;;
19280;SDS011;9774;52.034;5.342;2022-08-19T02:32:44;2.97;;;1.70;;
19280;SDS011;9774;52.034;5.342;2022-08-19T02:35:11;1.83;;;1.33;;
19280;SDS011;9774;52.034;5.342;2022-08-19T02:37:40;1.58;;;1.48;;
19280;SDS011;9774;52.034;5.342;2022-08-19T02:40:25;2.80;;;1.90;;
19280;SDS011;9774;52.034;5.342;2022-08-19T02:42:53;1.67;;;1.58;;
19280;SDS011;9774;52.034;5.342;2022-08-19T02:45:20;1.75;;;1.50;;
19280;SDS011;9774;52.034;5.342;2022-08-19T02:47:49;2.40;;;1.83;;
19280;SDS011;9774;52.034;5.342;2022-08-19T02:50:16;3.90;;;2.00;;
19280;SDS011;9774;52.034;5.342;2022-08-19T02:52:44;2.45;;;2.25;;
19280;SDS011;9774;52.034;5.342;2022-08-19T02:55:11;2.20;;;1.85;;
19280;SDS011;9774;52.034;5.342;2022-08-19T02:57:38;2.03;;;1.60;;
19280;SDS011;9774;52.034;5.342;2022-08-19T03:00:07;1.80;;;1.45;;
19280;SDS011;9774;52.034;5.342;2022-08-19T03:02:36;2.05;;;1.85;;
19280;SDS011;9774;52.034;5.342;2022-08-19T03:05:06;2.45;;;2.25;;
19280;SDS011;9774;52.034;5.342;2022-08-19T03:07:35;3.85;;;2.38;;
19280;SDS011;9774;52.034;5.342;2022-08-19T03:10:03;3.38;;;2.88;;
19280;SDS011;9774;52.034;5.342;2022-08-19T03:12:34;3.30;;;2.60;;
19280;SDS011;9774;52.034;5.342;2022-08-19T03:15:03;4.63;;;2.70;;
19280;SDS011;9774;52.034;5.342;2022-08-19T03:17:32;3.83;;;2.42;;
19280;SDS011;9774;52.034;5.342;2022-08-19T03:19:59;3.50;;;2.28;;
19280;SDS011;9774;52.034;5.342;2022-08-19T03:22:28;6.35;;;2.90;;
19280;SDS011;9774;52.034;5.342;2022-08-19T03:24:56;3.60;;;3.05;;
19280;SDS011;9774;52.034;5.342;2022-08-19T03:27:24;2.65;;;2.45;;
19280;SDS011;9774;52.034;5.342;2022-08-19T03:29:52;4.03;;;2.83;;
19280;SDS011;9774;52.034;5.342;2022-08-19T03:32:19;4.68;;;2.92;;
19280;SDS011;9774;52.034;5.342;2022-08-19T03:34:47;2.92;;;2.65;;
19280;SDS011;9774;52.034;5.342;2022-08-19T03:37:15;2.75;;;2.55;;
19280;SDS011;9774;52.034;5.342;2022-08-19T03:39:44;3.10;;;2.80;;
19280;SDS011;9774;52.034;5.342;2022-08-19T03:42:12;3.65;;;2.70;;
19280;SDS011;9774;52.034;5.342;2022-08-19T03:44:40;7.30;;;3.22;;
19280;SDS011;9774;52.034;5.342;2022-08-19T03:47:09;6.88;;;2.92;;
19280;SDS011;9774;52.034;5.342;2022-08-19T03:49:40;2.92;;;2.63;;
19280;SDS011;9774;52.034;5.342;2022-08-19T03:52:08;5.60;;;3.42;;
19280;SDS011;9774;52.034;5.342;2022-08-19T03:54:35;3.70;;;3.28;;
19280;SDS011;9774;52.034;5.342;2022-08-19T03:57:06;4.00;;;3.13;;
19280;SDS011;9774;52.034;5.342;2022-08-19T03:59:36;4.30;;;3.38;;
19280;SDS011;9774;52.034;5.342;2022-08-19T04:02:06;4.32;;;3.92;;
19280;SDS011;9774;52.034;5.342;2022-08-19T04:04:35;3.95;;;3.55;;
19280;SDS011;9774;52.034;5.342;2022-08-19T04:07:03;3.97;;;3.10;;
19280;SDS011;9774;52.034;5.342;2022-08-19T04:09:32;4.07;;;3.65;;
19280;SDS011;9774;52.034;5.342;2022-08-19T04:12:02;4.57;;;3.63;;
19280;SDS011;9774;52.034;5.342;2022-08-19T04:14:31;4.15;;;3.08;;
19280;SDS011;9774;52.034;5.342;2022-08-19T04:17:00;3.95;;;3.58;;
19280;SDS011;9774;52.034;5.342;2022-08-19T04:19:29;3.60;;;3.25;;
19280;SDS011;9774;52.034;5.342;2022-08-19T04:21:57;4.13;;;3.58;;
19280;SDS011;9774;52.034;5.342;2022-08-19T04:24:25;6.97;;;4.38;;
19280;SDS011;9774;52.034;5.342;2022-08-19T04:26:52;4.18;;;3.78;;
19280;SDS011;9774;52.034;5.342;2022-08-19T04:29:22;5.15;;;4.00;;
19280;SDS011;9774;52.034;5.342;2022-08-19T04:31:53;4.57;;;3.45;;
19280;SDS011;9774;52.034;5.342;2022-08-19T04:34:22;3.97;;;3.58;;
19280;SDS011;9774;52.034;5.342;2022-08-19T04:36:53;5.45;;;3.92;;
19280;SDS011;9774;52.034;5.342;2022-08-19T04:39:23;5.82;;;4.45;;
19280;SDS011;9774;52.034;5.342;2022-08-19T04:42:14;5.30;;;4.10;;
19280;SDS011;9774;52.034;5.342;2022-08-19T04:45:00;5.15;;;4.03;;
19280;SDS011;9774;52.034;5.342;2022-08-19T04:47:30;7.53;;;4.50;;
19280;SDS011;9774;52.034;5.342;2022-08-19T04:49:58;6.13;;;4.90;;
19280;SDS011;9774;52.034;5.342;2022-08-19T04:52:25;7.18;;;4.57;;
19280;SDS011;9774;52.034;5.342;2022-08-19T04:54:53;6.05;;;5.45;;
19280;SDS011;9774;52.034;5.342;2022-08-19T04:57:21;5.78;;;4.30;;
19280;SDS011;9774;52.034;5.342;2022-08-19T04:59:48;8.07;;;5.18;;
19280;SDS011;9774;52.034;5.342;2022-08-19T05:02:20;6.93;;;4.93;;
19280;SDS011;9774;52.034;5.342;2022-08-19T05:04:55;6.70;;;5.57;;
19280;SDS011;9774;52.034;5.342;2022-08-19T05:07:25;8.80;;;5.70;;
19280;SDS011;9774;52.034;5.342;2022-08-19T05:09:53;6.50;;;5.78;;
19280;SDS011;9774;52.034;5.342;2022-08-19T05:12:20;7.32;;;5.70;;
19280;SDS011;9774;52.034;5.342;2022-08-19T05:14:47;7.68;;;5.43;;
19280;SDS011;9774;52.034;5.342;2022-08-19T05:17:15;6.47;;;5.45;;
19280;SDS011;9774;52.034;5.342;2022-08-19T05:19:42;6.05;;;5.25;;
19280;SDS011;9774;52.034;5.342;2022-08-19T05:22:28;6.50;;;5.07;;
19280;SDS011;9774;52.034;5.342;2022-08-19T05:25:01;6.68;;;4.95;;
19280;SDS011;9774;52.034;5.342;2022-08-19T05:27:30;9.82;;;5.65;;
19280;SDS011;9774;52.034;5.342;2022-08-19T05:29:58;5.80;;;4.82;;
19280;SDS011;9774;52.034;5.342;2022-08-19T05:32:26;7.55;;;5.20;;
19280;SDS011;9774;52.034;5.342;2022-08-19T05:34:53;5.78;;;5.00;;
19280;SDS011;9774;52.034;5.342;2022-08-19T05:37:21;6.40;;;5.18;;
19280;SDS011;9774;52.034;5.342;2022-08-19T05:39:53;6.00;;;4.65;;
19280;SDS011;9774;52.034;5.342;2022-08-19T05:42:21;5.40;;;4.13;;
19280;SDS011;9774;52.034;5.342;2022-08-19T05:44:49;5.18;;;4.68;;
19280;SDS011;9774;52.034;5.342;2022-08-19T05:47:16;4.38;;;3.97;;
19280;SDS011;9774;52.034;5.342;2022-08-19T05:49:45;4.75;;;4.15;;
19280;SDS011;9774;52.034;5.342;2022-08-19T05:52:13;8.45;;;5.00;;
19280;SDS011;9774;52.034;5.342;2022-08-19T05:54:41;5.05;;;4.43;;
19280;SDS011;9774;52.034;5.342;2022-08-19T05:57:11;5.25;;;4.15;;
19280;SDS011;9774;52.034;5.342;2022-08-19T05:59:39;4.65;;;4.18;;
19280;SDS011;9774;52.034;5.342;2022-08-19T06:02:06;8.45;;;5.07;;
19280;SDS011;9774;52.034;5.342;2022-08-19T06:04:35;6.60;;;4.45;;
19280;SDS011;9774;52.034;5.342;2022-08-19T06:07:02;5.50;;;4.55;;
19280;SDS011;9774;52.034;5.342;2022-08-19T06:09:30;6.32;;;5.38;;
19280;SDS011;9774;52.034;5.342;2022-08-19T06:11:57;6.20;;;5.22;;
19280;SDS011;9774;52.034;5.342;2022-08-19T06:14:28;6.85;;;5.20;;
19280;SDS011;9774;52.034;5.342;2022-08-19T06:16:57;7.22;;;5.18;;
19280;SDS011;9774;52.034;5.342;2022-08-19T06:19:26;8.77;;;6.35;;
19280;SDS011;9774;52.034;5.342;2022-08-19T06:21:55;7.45;;;5.55;;
19280;SDS011;9774;52.034;5.342;2022-08-19T06:24:26;7.30;;;5.65;;
19280;SDS011;9774;52.034;5.342;2022-08-19T06:26:55;8.13;;;6.03;;
19280;SDS011;9774;52.034;5.342;2022-08-19T06:29:24;8.93;;;6.32;;
19280;SDS011;9774;52.034;5.342;2022-08-19T06:31:55;8.43;;;6.50;;
19280;SDS011;9774;52.034;5.342;2022-08-19T06:34:25;10.07;;;7.15;;
19280;SDS011;9774;52.034;5.342;2022-08-19T06:36:53;8.65;;;6.85;;
19280;SDS011;9774;52.034;5.342;2022-08-19T06:39:23;10.07;;;7.03;;
19280;SDS011;9774;52.034;5.342;2022-08-19T06:41:54;9.75;;;6.97;;
19280;SDS011;9774;52.034;5.342;2022-08-19T06:44:24;12.27;;;7.75;;
19280;SDS011;9774;52.034;5.342;2022-08-19T06:46:57;10.90;;;8.27;;
19280;SDS011;9774;52.034;5.342;2022-08-19T06:49:24;12.82;;;9.02;;
19280;SDS011;9774;52.034;5.342;2022-08-19T06:51:56;12.30;;;9.13;;
19280;SDS011;9774;52.034;5.342;2022-08-19T06:54:24;12.30;;;9.13;;
19280;SDS011;9774;52.034;5.342;2022-08-19T06:56:53;16.08;;;9.30;;
19280;SDS011;9774;52.034;5.342;2022-08-19T06:59:22;16.13;;;10.85;;
19280;SDS011;9774;52.034;5.342;2022-08-19T07:01:52;13.23;;;9.77;;
19280;SDS011;9774;52.034;5.342;2022-08-19T07:04:23;18.33;;;10.18;;
19280;SDS011;9774;52.034;5.342;2022-08-19T07:06:56;16.92;;;11.30;;
19280;SDS011;9774;52.034;5.342;2022-08-19T07:09:25;17.33;;;11.23;;
19280;SDS011;9774;52.034;5.342;2022-08-19T07:11:53;18.13;;;12.35;;
19280;SDS011;9774;52.034;5.342;2022-08-19T07:14:23;16.95;;;12.77;;
19280;SDS011;9774;52.034;5.342;2022-08-19T07:16:53;22.10;;;13.48;;
19280;SDS011;9774;52.034;5.342;2022-08-19T07:19:23;21.77;;;13.20;;
19280;SDS011;9774;52.034;5.342;2022-08-19T07:21:52;20.50;;;12.55;;
19280;SDS011;9774;52.034;5.342;2022-08-19T07:24:21;24.30;;;14.45;;
19280;SDS011;9774;52.034;5.342;2022-08-19T07:26:50;18.65;;;13.32;;
19280;SDS011;9774;52.034;5.342;2022-08-19T07:29:19;20.17;;;13.43;;
19280;SDS011;9774;52.034;5.342;2022-08-19T07:31:48;16.77;;;13.00;;
19280;SDS011;9774;52.034;5.342;2022-08-19T07:34:16;19.65;;;13.50;;
19280;SDS011;9774;52.034;5.342;2022-08-19T07:36:45;21.33;;;14.38;;
19280;SDS011;9774;52.034;5.342;2022-08-19T07:39:15;21.55;;;13.18;;
19280;SDS011;9774;52.034;5.342;2022-08-19T07:41:45;20.27;;;13.45;;
19280;SDS011;9774;52.034;5.342;2022-08-19T07:44:13;18.70;;;12.32;;
19280;SDS011;9774;52.034;5.342;2022-08-19T07:46:49;20.17;;;12.70;;
19280;SDS011;9774;52.034;5.342;2022-08-19T07:49:18;15.35;;;12.18;;
19280;SDS011;9774;52.034;5.342;2022-08-19T07:51:48;21.08;;;12.98;;
19280;SDS011;9774;52.034;5.342;2022-08-19T07:54:18;18.83;;;12.25;;
19280;SDS011;9774;52.034;5.342;2022-08-19T07:56:46;19.52;;;12.63;;
19280;SDS011;9774;52.034;5.342;2022-08-19T08:01:50;17.38;;;11.73;;
19280;SDS011;9774;52.034;5.342;2022-08-19T08:04:17;19.40;;;12.85;;
19280;SDS011;9774;52.034;5.342;2022-08-19T08:07:05;17.77;;;11.90;;
19280;SDS011;9774;52.034;5.342;2022-08-19T08:09:52;13.13;;;10.25;;
19280;SDS011;9774;52.034;5.342;2022-08-19T08:12:20;16.33;;;11.90;;
19280;SDS011;9774;52.034;5.342;2022-08-19T08:14:52;18.48;;;11.57;;
19280;SDS011;9774;52.034;5.342;2022-08-19T08:17:23;18.02;;;12.88;;
19280;SDS011;9774;52.034;5.342;2022-08-19T08:19:51;16.48;;;12.27;;
19280;SDS011;9774;52.034;5.342;2022-08-19T08:22:21;19.65;;;11.18;;
19280;SDS011;9774;52.034;5.342;2022-08-19T08:25:08;17.05;;;12.30;;
19280;SDS011;9774;52.034;5.342;2022-08-19T08:27:38;18.67;;;11.48;;
19280;SDS011;9774;52.034;5.342;2022-08-19T08:30:07;15.10;;;10.45;;
19280;SDS011;9774;52.034;5.342;2022-08-19T08:32:35;17.95;;;11.05;;
19280;SDS011;9774;52.034;5.342;2022-08-19T08:35:03;17.63;;;10.18;;
19280;SDS011;9774;52.034;5.342;2022-08-19T08:37:33;15.38;;;9.48;;
19280;SDS011;9774;52.034;5.342;2022-08-19T08:40:02;14.10;;;10.65;;
19280;SDS011;9774;52.034;5.342;2022-08-19T08:42:32;14.80;;;8.93;;
19280;SDS011;9774;52.034;5.342;2022-08-19T08:45:08;11.70;;;8.23;;
19280;SDS011;9774;52.034;5.342;2022-08-19T08:47:40;15.13;;;9.35;;
19280;SDS011;9774;52.034;5.342;2022-08-19T08:50:13;12.05;;;9.40;;
19280;SDS011;9774;52.034;5.342;2022-08-19T08:52:47;13.10;;;8.40;;
19280;SDS011;9774;52.034;5.342;2022-08-19T08:55:20;12.43;;;9.25;;
19280;SDS011;9774;52.034;5.342;2022-08-19T08:57:51;12.00;;;8.40;;
19280;SDS011;9774;52.034;5.342;2022-08-19T09:00:23;15.88;;;9.23;;
19280;SDS011;9774;52.034;5.342;2022-08-19T09:02:52;13.38;;;8.90;;
19280;SDS011;9774;52.034;5.342;2022-08-19T09:05:20;10.48;;;8.43;;
19280;SDS011;9774;52.034;5.342;2022-08-19T09:07:52;13.18;;;8.50;;
19280;SDS011;9774;52.034;5.342;2022-08-19T09:10:28;14.60;;;9.00;;
19280;SDS011;9774;52.034;5.342;2022-08-19T09:13:04;9.75;;;7.30;;
19280;SDS011;9774;52.034;5.342;2022-08-19T09:15:39;16.50;;;9.00;;
19280;SDS011;9774;52.034;5.342;2022-08-19T09:18:10;11.90;;;8.98;;
19280;SDS011;9774;52.034;5.342;2022-08-19T09:20:37;12.75;;;8.43;;
19280;SDS011;9774;52.034;5.342;2022-08-19T09:23:06;13.88;;;8.73;;
19280;SDS011;9774;52.034;5.342;2022-08-19T09:25:34;14.15;;;8.55;;
19280;SDS011;9774;52.034;5.342;2022-08-19T09:28:02;11.98;;;8.93;;
19280;SDS011;9774;52.034;5.342;2022-08-19T09:30:31;10.95;;;9.02;;
19280;SDS011;9774;52.034;5.342;2022-08-19T09:33:00;10.27;;;8.48;;
19280;SDS011;9774;52.034;5.342;2022-08-19T09:35:28;11.65;;;8.63;;
19280;SDS011;9774;52.034;5.342;2022-08-19T09:37:56;12.98;;;9.00;;
19280;SDS011;9774;52.034;5.342;2022-08-19T09:40:26;11.90;;;8.20;;
19280;SDS011;9774;52.034;5.342;2022-08-19T09:42:56;12.00;;;8.25;;
19280;SDS011;9774;52.034;5.342;2022-08-19T09:45:27;16.25;;;8.13;;
19280;SDS011;9774;52.034;5.342;2022-08-19T09:47:55;10.02;;;7.38;;
19280;SDS011;9774;52.034;5.342;2022-08-19T09:50:23;10.57;;;7.97;;
19280;SDS011;9774;52.034;5.342;2022-08-19T09:52:51;12.68;;;9.23;;
19280;SDS011;9774;52.034;5.342;2022-08-19T09:55:22;11.13;;;8.35;;
19280;SDS011;9774;52.034;5.342;2022-08-19T09:57:54;13.80;;;8.82;;
19280;SDS011;9774;52.034;5.342;2022-08-19T10:00:22;13.65;;;10.15;;
19280;SDS011;9774;52.034;5.342;2022-08-19T10:02:49;12.48;;;9.30;;
19280;SDS011;9774;52.034;5.342;2022-08-19T10:05:16;13.68;;;9.75;;
19280;SDS011;9774;52.034;5.342;2022-08-19T10:08:01;14.82;;;10.00;;
19280;SDS011;9774;52.034;5.342;2022-08-19T10:10:29;15.18;;;10.73;;
19280;SDS011;9774;52.034;5.342;2022-08-19T10:13:02;17.10;;;11.50;;
19280;SDS011;9774;52.034;5.342;2022-08-19T10:15:29;13.77;;;12.02;;
19280;SDS011;9774;52.034;5.342;2022-08-19T10:17:56;17.17;;;12.75;;
19280;SDS011;9774;52.034;5.342;2022-08-19T10:20:24;19.02;;;12.27;;
19280;SDS011;9774;52.034;5.342;2022-08-19T10:22:51;12.68;;;10.98;;
19280;SDS011;9774;52.034;5.342;2022-08-19T10:25:19;14.93;;;11.65;;
19280;SDS011;9774;52.034;5.342;2022-08-19T10:27:46;17.13;;;12.27;;
19280;SDS011;9774;52.034;5.342;2022-08-19T10:30:15;20.75;;;13.90;;
19280;SDS011;9774;52.034;5.342;2022-08-19T10:32:44;15.50;;;12.60;;
19280;SDS011;9774;52.034;5.342;2022-08-19T10:35:11;17.42;;;12.00;;
19280;SDS011;9774;52.034;5.342;2022-08-19T10:37:40;18.52;;;12.52;;
19280;SDS011;9774;52.034;5.342;2022-08-19T10:40:08;15.38;;;12.60;;
19280;SDS011;9774;52.034;5.342;2022-08-19T10:42:36;19.92;;;12.75;;
19280;SDS011;9774;52.034;5.342;2022-08-19T10:45:04;15.27;;;11.77;;
19280;SDS011;9774;52.034;5.342;2022-08-19T10:47:33;17.55;;;11.98;;
19280;SDS011;9774;52.034;5.342;2022-08-19T10:50:01;21.35;;;13.60;;
19280;SDS011;9774;52.034;5.342;2022-08-19T10:52:48;15.00;;;10.98;;
19280;SDS011;9774;52.034;5.342;2022-08-19T10:55:17;18.75;;;13.57;;
19280;SDS011;9774;52.034;5.342;2022-08-19T10:58:03;17.13;;;12.85;;
19280;SDS011;9774;52.034;5.342;2022-08-19T11:00:35;17.63;;;12.65;;
19280;SDS011;9774;52.034;5.342;2022-08-19T11:03:04;17.38;;;12.38;;
19280;SDS011;9774;52.034;5.342;2022-08-19T11:05:31;19.38;;;12.68;;
19280;SDS011;9774;52.034;5.342;2022-08-19T11:07:59;19.50;;;13.50;;
19280;SDS011;9774;52.034;5.342;2022-08-19T11:10:26;17.58;;;11.88;;
19280;SDS011;9774;52.034;5.342;2022-08-19T11:12:53;18.75;;;13.30;;
19280;SDS011;9774;52.034;5.342;2022-08-19T11:15:21;18.90;;;12.93;;
19280;SDS011;9774;52.034;5.342;2022-08-19T11:17:51;16.27;;;12.43;;
19280;SDS011;9774;52.034;5.342;2022-08-19T11:20:22;15.40;;;12.32;;
19280;SDS011;9774;52.034;5.342;2022-08-19T11:22:50;20.83;;;12.65;;
19280;SDS011;9774;52.034;5.342;2022-08-19T11:25:19;17.33;;;12.93;;
19280;SDS011;9774;52.034;5.342;2022-08-19T11:27:46;22.88;;;13.73;;
19280;SDS011;9774;52.034;5.342;2022-08-19T11:30:16;14.52;;;12.15;;
19280;SDS011;9774;52.034;5.342;2022-08-19T11:32:43;18.35;;;13.15;;
19280;SDS011;9774;52.034;5.342;2022-08-19T11:35:11;13.98;;;11.65;;
19280;SDS011;9774;52.034;5.342;2022-08-19T11:37:40;16.77;;;12.48;;
19280;SDS011;9774;52.034;5.342;2022-08-19T11:40:08;16.90;;;13.32;;
19280;SDS011;9774;52.034;5.342;2022-08-19T11:42:36;17.88;;;11.98;;
19280;SDS011;9774;52.034;5.342;2022-08-19T11:45:26;16.85;;;11.75;;
19280;SDS011;9774;52.034;5.342;2022-08-19T11:47:54;19.98;;;13.80;;
19280;SDS011;9774;52.034;5.342;2022-08-19T11:50:22;15.65;;;12.23;;
19280;SDS011;9774;52.034;5.342;2022-08-19T11:52:51;15.80;;;11.85;;
19280;SDS011;9774;52.034;5.342;2022-08-19T11:55:20;13.77;;;11.38;;
19280;SDS011;9774;52.034;5.342;2022-08-19T11:57:48;13.40;;;11.95;;
19280;SDS011;9774;52.034;5.342;2022-08-19T12:00:15;18.42;;;13.32;;
19280;SDS011;9774;52.034;5.342;2022-08-19T12:02:43;17.08;;;12.32;;
19280;SDS011;9774;52.034;5.342;2022-08-19T12:05:10;15.48;;;12.30;;
19280;SDS011;9774;52.034;5.342;2022-08-19T12:07:37;11.73;;;10.52;;
19280;SDS011;9774;52.034;5.342;2022-08-19T12:10:10;15.13;;;11.70;;
19280;SDS011;9774;52.034;5.342;2022-08-19T12:12:37;16.33;;;12.30;;
19280;SDS011;9774;52.034;5.342;2022-08-19T12:15:07;13.10;;;11.02;;
19280;SDS011;9774;52.034;5.342;2022-08-19T12:17:36;12.48;;;10.32;;
19280;SDS011;9774;52.034;5.342;2022-08-19T12:20:05;13.93;;;10.55;;
19280;SDS011;9774;52.034;5.342;2022-08-19T12:22:35;11.68;;;9.68;;
19280;SDS011;9774;52.034;5.342;2022-08-19T12:25:03;11.15;;;9.55;;
19280;SDS011;9774;52.034;5.342;2022-08-19T12:27:33;9.25;;;8.30;;
19280;SDS011;9774;52.034;5.342;2022-08-19T12:30:01;9.25;;;8.25;;
19280;SDS011;9774;52.034;5.342;2022-08-19T12:32:29;11.68;;;9.18;;
19280;SDS011;9774;52.034;5.342;2022-08-19T12:34:56;13.70;;;8.80;;
19280;SDS011;9774;52.034;5.342;2022-08-19T12:37:23;14.40;;;9.13;;
19280;SDS011;9774;52.034;5.342;2022-08-19T12:39:50;9.82;;;8.68;;
19280;SDS011;9774;52.034;5.342;2022-08-19T12:42:18;10.93;;;8.55;;
19280;SDS011;9774;52.034;5.342;2022-08-19T12:44:48;11.55;;;8.13;;
19280;SDS011;9774;52.034;5.342;2022-08-19T12:47:16;7.25;;;6.25;;
19280;SDS011;9774;52.034;5.342;2022-08-19T12:49:44;8.90;;;6.55;;
19280;SDS011;9774;52.034;5.342;2022-08-19T12:52:12;7.03;;;6.32;;
19280;SDS011;9774;52.034;5.342;2022-08-19T12:54:40;6.53;;;5.82;;
19280;SDS011;9774;52.034;5.342;2022-08-19T12:57:09;6.88;;;6.15;;
19280;SDS011;9774;52.034;5.342;2022-08-19T12:59:37;9.00;;;6.28;;
19280;SDS011;9774;52.034;5.342;2022-08-19T13:02:07;8.90;;;6.90;;
19280;SDS011;9774;52.034;5.342;2022-08-19T13:04:35;7.07;;;6.40;;
19280;SDS011;9774;52.034;5.342;2022-08-19T13:07:05;8.05;;;6.72;;
19280;SDS011;9774;52.034;5.342;2022-08-19T13:09:33;9.07;;;6.22;;
19280;SDS011;9774;52.034;5.342;2022-08-19T13:12:01;6.00;;;4.72;;
19280;SDS011;9774;52.034;5.342;2022-08-19T13:14:32;6.13;;;5.43;;
19280;SDS011;9774;52.034;5.342;2022-08-19T13:17:00;7.47;;;5.50;;
19280;SDS011;9774;52.034;5.342;2022-08-19T13:19:29;8.38;;;6.45;;
19280;SDS011;9774;52.034;5.342;2022-08-19T13:21:56;7.93;;;7.13;;
19280;SDS011;9774;52.034;5.342;2022-08-19T13:24:24;7.97;;;6.75;;
19280;SDS011;9774;52.034;5.342;2022-08-19T13:26:51;6.65;;;5.85;;
19280;SDS011;9774;52.034;5.342;2022-08-19T13:29:18;7.80;;;6.10;;
19280;SDS011;9774;52.034;5.342;2022-08-19T13:32:03;8.50;;;6.57;;
19280;SDS011;9774;52.034;5.342;2022-08-19T13:35:05;8.75;;;5.22;;
19280;SDS011;9774;52.034;5.342;2022-08-19T13:37:32;5.32;;;4.82;;
19280;SDS011;9774;52.034;5.342;2022-08-19T13:40:10;7.35;;;4.28;;
19280;SDS011;9774;52.034;5.342;2022-08-19T13:42:42;5.60;;;4.78;;
19280;SDS011;9774;52.034;5.342;2022-08-19T13:45:12;5.30;;;4.20;;
19280;SDS011;9774;52.034;5.342;2022-08-19T13:47:41;6.75;;;3.85;;
19280;SDS011;9774;52.034;5.342;2022-08-19T13:50:13;7.43;;;3.65;;
19280;SDS011;9774;52.034;5.342;2022-08-19T13:52:41;22.95;;;4.32;;
19280;SDS011;9774;52.034;5.342;2022-08-19T13:55:10;3.97;;;3.58;;
19280;SDS011;9774;52.034;5.342;2022-08-19T13:57:38;3.42;;;2.88;;
19280;SDS011;9774;52.034;5.342;2022-08-19T14:00:05;3.92;;;2.97;;
19280;SDS011;9774;52.034;5.342;2022-08-19T14:02:35;3.33;;;2.92;;
19280;SDS011;9774;52.034;5.342;2022-08-19T14:05:05;3.88;;;2.90;;
19280;SDS011;9774;52.034;5.342;2022-08-19T14:07:35;3.58;;;2.50;;
19280;SDS011;9774;52.034;5.342;2022-08-19T14:10:03;6.25;;;3.15;;
19280;SDS011;9774;52.034;5.342;2022-08-19T14:12:32;3.45;;;2.83;;
19280;SDS011;9774;52.034;5.342;2022-08-19T14:14:59;3.10;;;2.75;;
19280;SDS011;9774;52.034;5.342;2022-08-19T14:17:28;3.03;;;2.78;;
19280;SDS011;9774;52.034;5.342;2022-08-19T14:19:56;3.15;;;2.85;;
19280;SDS011;9774;52.034;5.342;2022-08-19T14:22:24;7.43;;;3.22;;
19280;SDS011;9774;52.034;5.342;2022-08-19T14:24:52;3.40;;;2.60;;
19280;SDS011;9774;52.034;5.342;2022-08-19T14:27:20;2.78;;;2.55;;
19280;SDS011;9774;52.034;5.342;2022-08-19T14:29:50;2.28;;;2.08;;
19280;SDS011;9774;52.034;5.342;2022-08-19T14:32:17;2.75;;;2.55;;
19280;SDS011;9774;52.034;5.342;2022-08-19T14:34:44;2.80;;;2.60;;
19280;SDS011;9774;52.034;5.342;2022-08-19T14:37:12;2.53;;;2.33;;
19280;SDS011;9774;52.034;5.342;2022-08-19T14:39:40;2.30;;;2.08;;
19280;SDS011;9774;52.034;5.342;2022-08-19T14:42:09;2.78;;;2.58;;
19280;SDS011;9774;52.034;5.342;2022-08-19T14:44:40;2.78;;;1.98;;
19280;SDS011;9774;52.034;5.342;2022-08-19T14:47:09;2.55;;;2.35;;
19280;SDS011;9774;52.034;5.342;2022-08-19T14:49:37;1.95;;;1.85;;
19280;SDS011;9774;52.034;5.342;2022-08-19T14:52:05;2.30;;;2.15;;
19280;SDS011;9774;52.034;5.342;2022-08-19T14:54:32;2.53;;;2.33;;
19280;SDS011;9774;52.034;5.342;2022-08-19T14:57:00;2.72;;;2.35;;
19280;SDS011;9774;52.034;5.342;2022-08-19T14:59:29;2.33;;;2.17;;
19280;SDS011;9774;52.034;5.342;2022-08-19T15:01:56;2.58;;;2.38;;
19280;SDS011;9774;52.034;5.342;2022-08-19T15:04:24;2.65;;;2.45;;
19280;SDS011;9774;52.034;5.342;2022-08-19T15:06:51;2.53;;;2.33;;
19280;SDS011;9774;52.034;5.342;2022-08-19T15:09:19;3.35;;;2.58;;